Time;durP1;ratioP1;P1;durP2;ratioP2;P2;SDS_P1;SDS_P2;PMS_P1;PMS_P2;Temp;Humidity;BMP_temperature;BMP_pressure;BME280_temperature;BME280_humidity;BME280_pressure;Samples;Min_cycle;Max_cycle;Signal;HPM_P1;HPM_P2
2023/01/07 00:01:31;;;;;;;27.13;16.33;;;9.50;99.90;;;;;;5033357;28;20051;-80
2023/01/07 00:03:58;;;;;;;27.30;15.88;;;9.50;99.90;;;;;;5033370;28;20053;-79
2023/01/07 00:06:32;;;;;;;26.92;16.00;;;9.50;99.90;;;;;;5033385;28;20084;-82
2023/01/07 00:08:59;;;;;;;25.80;15.98;;;9.50;99.90;;;;;;5033373;28;20041;-82
2023/01/07 00:11:34;;;;;;;26.92;16.13;;;9.60;99.90;;;;;;5033398;28;20092;-81
2023/01/07 00:14:00;;;;;;;29.30;17.50;;;9.60;99.90;;;;;;5016010;28;20424;-80
2023/01/07 00:16:28;;;;;;;27.00;16.25;;;9.60;99.90;;;;;;5033219;28;20392;-82
2023/01/07 00:18:56;;;;;;;28.63;17.88;;;9.70;99.90;;;;;;5033280;28;20045;-82
2023/01/07 00:21:23;;;;;;;28.60;17.55;;;10.00;99.90;;;;;;5015864;28;20052;-80
2023/01/07 00:23:53;;;;;;;30.58;17.92;;;10.10;99.90;;;;;;5033203;28;20042;-82
2023/01/07 00:26:21;;;;;;;28.85;17.90;;;9.80;99.90;;;;;;5015585;28;20045;-82
2023/01/07 00:28:48;;;;;;;29.65;18.42;;;10.50;99.90;;;;;;5033278;28;20045;-81
2023/01/07 00:31:18;;;;;;;29.92;19.23;;;9.80;99.90;;;;;;5033171;28;20042;-82
2023/01/07 00:34:22;;;;;;;28.42;18.10;;;10.30;99.90;;;;;;5032945;28;20502;-83
2023/01/07 00:36:38;;;;;;;30.75;18.60;;;9.80;99.90;;;;;;5014629;28;20540;-83
2023/01/07 00:39:14;;;;;;;;;;;9.90;99.90;;;;;;5037296;28;20049;-78
2023/01/07 00:42:52;;;;;;;28.67;17.45;;;10.10;99.90;;;;;;5036811;28;20366;-80
2023/01/07 00:44:26;;;;;;;29.98;17.92;;;9.80;99.90;;;;;;5032369;28;20053;-77
2023/01/07 00:46:52;;;;;;;26.37;17.67;;;9.80;99.90;;;;;;5036728;28;20127;-82
2023/01/07 00:49:17;;;;;;;30.08;17.25;;;10.00;99.90;;;;;;5036754;28;20108;-81
2023/01/07 00:51:43;;;;;;;31.58;19.27;;;9.80;99.90;;;;;;5019084;28;20034;-84
2023/01/07 00:54:09;;;;;;;29.38;18.70;;;9.90;99.90;;;;;;5036851;28;20076;-81
2023/01/07 00:56:34;;;;;;;29.92;17.88;;;9.80;99.90;;;;;;5019194;28;20037;-83
2023/01/07 00:59:00;;;;;;;31.40;19.27;;;9.90;99.90;;;;;;5002763;28;20045;-83
2023/01/07 01:01:25;;;;;;;31.33;19.00;;;10.10;99.90;;;;;;5036891;28;20046;-83
2023/01/07 01:03:51;;;;;;;28.58;19.73;;;10.60;99.90;;;;;;5036485;28;20045;-81
2023/01/07 01:06:16;;;;;;;31.25;19.40;;;9.90;99.90;;;;;;5036237;28;20470;-81
2023/01/07 01:08:44;;;;;;;30.45;19.75;;;9.90;99.90;;;;;;5036369;28;20045;-81
2023/01/07 01:11:11;;;;;;;31.73;20.55;;;9.90;99.90;;;;;;5018885;28;20045;-82
2023/01/07 01:13:38;;;;;;;30.77;19.55;;;9.90;99.90;;;;;;5018535;28;20107;-79
2023/01/07 01:16:09;;;;;;;27.73;18.88;;;10.80;99.90;;;;;;5036549;28;20049;-80
2023/01/07 01:18:35;;;;;;;30.35;20.13;;;9.90;99.90;;;;;;5035919;28;20073;-82
2023/01/07 01:21:09;;;;;;;26.37;17.77;;;9.90;99.90;;;;;;5036181;28;20050;-79
2023/01/07 01:23:35;;;;;;;28.35;18.23;;;10.10;99.90;;;;;;5036112;28;20056;-79
2023/01/07 01:26:16;;;;;;;25.75;16.80;;;10.00;99.90;;;;;;5036362;28;20049;-81
2023/01/07 01:28:42;;;;;;;27.10;18.00;;;10.00;99.90;;;;;;5035990;28;20050;-82
2023/01/07 01:31:08;;;;;;;28.80;16.95;;;10.00;99.90;;;;;;5036524;28;20053;-81
2023/01/07 01:33:33;;;;;;;27.67;17.15;;;10.00;99.90;;;;;;5036025;28;20049;-81
2023/01/07 01:36:03;;;;;;;29.80;17.10;;;10.30;99.90;;;;;;5035974;28;20069;-83
2023/01/07 01:38:29;;;;;;;26.55;17.98;;;10.00;99.90;;;;;;5035857;28;20081;-84
2023/01/07 01:40:54;;;;;;;28.97;18.17;;;10.00;99.90;;;;;;5018081;28;20121;-82
2023/01/07 01:43:35;;;;;;;27.55;17.63;;;10.00;99.90;;;;;;5035819;28;20147;-80
2023/01/07 01:46:25;;;;;;;27.45;17.10;;;10.00;99.90;;;;;;5036534;28;20394;-82
2023/01/07 01:49:04;;;;;;;27.45;18.27;;;10.00;99.90;;;;;;5004974;28;20053;-83
2023/01/07 01:51:35;;;;;;;28.85;18.70;;;10.00;99.90;;;;;;5036302;28;20045;-83
2023/01/07 01:54:05;;;;;;;28.55;17.95;;;10.00;99.90;;;;;;5035503;28;20571;-80
2023/01/07 01:56:39;;;;;;;29.08;18.60;;;10.00;99.90;;;;;;5035666;28;20037;-81
2023/01/07 01:59:12;;;;;;;27.65;18.48;;;10.00;99.90;;;;;;5035629;28;20056;-81
2023/01/07 02:01:38;;;;;;;29.13;18.02;;;10.00;99.90;;;;;;5035450;28;20049;-80
2023/01/07 02:04:09;;;;;;;28.17;18.08;;;10.00;99.90;;;;;;5035388;28;20092;-83
2023/01/07 02:06:41;;;;;;;26.45;16.67;;;10.00;99.90;;;;;;5035727;28;20038;-80
2023/01/07 02:09:09;;;;;;;25.52;16.98;;;10.00;99.90;;;;;;5035362;28;20120;-80
2023/01/07 02:12:12;;;;;;;27.83;17.65;;;10.00;99.90;;;;;;5001811;28;20046;-83
2023/01/07 02:15:09;;;;;;;27.58;18.17;;;10.00;99.90;;;;;;5031655;28;20067;-83
2023/01/07 02:17:49;;;;;;;26.25;16.55;;;10.00;99.90;;;;;;5018121;28;20063;-81
2023/01/07 02:20:34;;;;;;;23.60;16.48;;;10.00;99.90;;;;;;5035199;28;20045;-81
2023/01/07 02:23:19;;;;;;;25.85;16.70;;;10.00;99.90;;;;;;5035046;28;20045;-84
2023/01/07 02:26:20;;;;;;;27.45;17.77;;;10.00;99.90;;;;;;5035124;28;20136;-80
2023/01/07 02:29:16;;;;;;;27.92;17.52;;;10.00;99.90;;;;;;4986262;28;20486;-80
2023/01/07 02:32:04;;;;;;;29.30;17.58;;;10.00;99.90;;;;;;5034877;28;20099;-80
2023/01/07 02:35:00;;;;;;;25.20;15.68;;;10.00;99.90;;;;;;5034913;28;20061;-80
2023/01/07 02:37:49;;;;;;;24.83;17.13;;;10.00;99.90;;;;;;5034738;28;20045;-80
2023/01/07 02:40:20;;;;;;;25.52;16.48;;;10.00;99.90;;;;;;5034663;28;20560;-81
2023/01/07 02:43:06;;;;;;;24.85;16.17;;;10.00;99.90;;;;;;5034632;28;20497;-80
2023/01/07 02:45:39;;;;;;;27.17;17.08;;;10.00;99.90;;;;;;5017232;28;20042;-81
2023/01/07 02:48:08;;;;;;;25.92;16.63;;;10.00;99.90;;;;;;5036604;28;20045;-80
2023/01/07 02:50:34;;;;;;;23.65;16.25;;;10.00;99.90;;;;;;5017709;28;20056;-81
2023/01/07 02:53:00;;;;;;;24.67;16.02;;;10.30;99.90;;;;;;5016528;28;20037;-81
2023/01/07 02:56:08;;;;;;;25.15;16.27;;;10.10;99.90;;;;;;5016821;28;20052;-82
2023/01/07 02:59:10;;;;;;;25.42;15.18;;;10.00;99.90;;;;;;5016555;28;20081;-83
2023/01/07 03:02:04;;;;;;;26.05;16.70;;;10.00;99.90;;;;;;5013514;28;20510;-80
2023/01/07 03:04:41;;;;;;;22.25;15.73;;;10.00;99.90;;;;;;5034251;28;20096;-82
2023/01/07 03:07:31;;;;;;;23.55;14.48;;;10.00;99.90;;;;;;5000545;28;20041;-81
2023/01/07 03:10:12;;;;;;;21.67;15.68;;;10.00;99.90;;;;;;5016902;28;20088;-83
2023/01/07 03:12:45;;;;;;;23.00;15.60;;;10.00;99.90;;;;;;5034207;28;20047;-82
2023/01/07 03:15:20;;;;;;;21.48;15.02;;;10.00;99.90;;;;;;5034014;28;20101;-79
2023/01/07 03:17:51;;;;;;;22.80;15.38;;;10.00;99.90;;;;;;5034366;28;20042;-81
2023/01/07 03:20:20;;;;;;;21.50;14.82;;;10.00;99.90;;;;;;5033747;28;20467;-81
2023/01/07 03:22:46;;;;;;;26.48;15.90;;;10.00;99.90;;;;;;5033954;28;20049;-82
2023/01/07 03:25:13;;;;;;;24.73;14.80;;;10.00;99.90;;;;;;5033904;28;20136;-82
2023/01/07 03:27:41;;;;;;;21.20;14.65;;;10.00;99.90;;;;;;5033815;28;20041;-83
2023/01/07 03:30:11;;;;;;;18.92;13.57;;;10.00;99.90;;;;;;5033848;28;20045;-80
2023/01/07 03:32:50;;;;;;;23.95;14.93;;;10.00;99.90;;;;;;5033428;28;20636;-81
2023/01/07 03:35:17;;;;;;;20.17;14.23;;;10.00;99.90;;;;;;5033514;28;20490;-80
2023/01/07 03:37:45;;;;;;;20.40;13.88;;;10.00;99.90;;;;;;5033706;28;20076;-81
2023/01/07 03:40:11;;;;;;;22.80;13.25;;;10.00;99.90;;;;;;5033776;28;20045;-82
2023/01/07 03:42:39;;;;;;;22.67;13.57;;;10.00;99.90;;;;;;5034126;28;20239;-81
2023/01/07 03:45:14;;;;;;;20.73;13.25;;;10.00;99.90;;;;;;5033602;28;20042;-83
2023/01/07 03:47:44;;;;;;;18.58;13.60;;;10.00;99.90;;;;;;5033537;28;20042;-83
2023/01/07 03:50:10;;;;;;;18.55;14.25;;;10.00;99.90;;;;;;5035784;28;20046;-81
2023/01/07 03:52:35;;;;;;;17.13;12.45;;;10.00;99.90;;;;;;5033591;28;20049;-80
2023/01/07 03:55:03;;;;;;;15.98;11.23;;;10.00;99.90;;;;;;5034022;28;20049;-80
2023/01/07 03:57:30;;;;;;;17.20;11.55;;;10.00;99.90;;;;;;5015830;28;20408;-80
2023/01/07 03:59:55;;;;;;;18.85;11.48;;;9.90;99.90;;;;;;5033588;28;20501;-79
2023/01/07 04:02:21;;;;;;;17.45;11.95;;;10.00;99.90;;;;;;5033368;28;20053;-83
2023/01/07 04:04:46;;;;;;;18.52;11.95;;;10.60;99.90;;;;;;5033558;28;20378;-80
2023/01/07 04:07:12;;;;;;;15.18;10.50;;;10.00;99.90;;;;;;5033337;28;20065;-82
2023/01/07 04:09:38;;;;;;;17.00;11.20;;;9.90;99.90;;;;;;5035033;28;20128;-82
2023/01/07 04:12:04;;;;;;;14.32;10.95;;;9.90;99.90;;;;;;5037832;28;20208;-80
2023/01/07 04:14:29;;;;;;;17.85;11.10;;;9.90;99.90;;;;;;5020067;28;20045;-80
2023/01/07 04:16:55;;;;;;;15.55;11.00;;;9.90;99.90;;;;;;5003662;28;20065;-82
2023/01/07 04:19:22;;;;;;;14.77;11.20;;;9.90;99.90;;;;;;5019901;28;20042;-81
2023/01/07 04:21:47;;;;;;;14.70;10.93;;;9.90;99.90;;;;;;5037173;28;20457;-80
2023/01/07 04:24:13;;;;;;;15.75;10.18;;;9.90;99.90;;;;;;5037239;28;20077;-81
2023/01/07 04:26:39;;;;;;;14.13;10.52;;;10.70;99.90;;;;;;5019534;28;20508;-83
2023/01/07 04:29:04;;;;;;;16.48;11.95;;;9.90;99.90;;;;;;5037174;28;20045;-83
2023/01/07 04:31:30;;;;;;;15.93;10.27;;;9.90;99.90;;;;;;5037133;28;20091;-81
2023/01/07 04:33:56;;;;;;;16.00;10.52;;;9.90;99.90;;;;;;5037107;28;20095;-80
2023/01/07 04:36:22;;;;;;;14.45;9.57;;;9.90;99.90;;;;;;5037270;28;20374;-82
2023/01/07 04:38:48;;;;;;;14.90;10.05;;;9.90;99.90;;;;;;5019183;28;20049;-83
2023/01/07 04:41:13;;;;;;;15.27;10.07;;;9.90;99.90;;;;;;5036946;28;20045;-83
2023/01/07 04:43:39;;;;;;;16.88;9.75;;;10.20;99.90;;;;;;5019366;28;20090;-83
2023/01/07 04:46:05;;;;;;;14.40;9.48;;;9.90;99.90;;;;;;5036789;28;20041;-83
2023/01/07 04:48:31;;;;;;;12.77;9.95;;;10.10;99.90;;;;;;5036653;28;20037;-81
2023/01/07 04:50:56;;;;;;;14.45;8.77;;;10.00;99.90;;;;;;5037172;28;20091;-79
2023/01/07 04:53:22;;;;;;;13.68;9.43;;;9.90;99.90;;;;;;5020088;28;20047;-83
2023/01/07 04:55:48;;;;;;;12.75;9.15;;;9.90;99.90;;;;;;5036642;28;20052;-82
2023/01/07 04:58:13;;;;;;;16.85;9.10;;;9.90;99.90;;;;;;5018930;28;20041;-82
2023/01/07 05:00:39;;;;;;;12.43;8.65;;;9.90;99.90;;;;;;5036723;28;20053;-84
2023/01/07 05:03:05;;;;;;;11.48;8.15;;;9.90;99.90;;;;;;5018821;28;20053;-83
2023/01/07 05:05:30;;;;;;;14.35;9.70;;;10.20;99.90;;;;;;5036502;28;20466;-81
2023/01/07 05:07:56;;;;;;;13.10;7.80;;;9.80;99.90;;;;;;5036022;28;20474;-82
2023/01/07 05:10:22;;;;;;;12.88;8.38;;;9.90;99.90;;;;;;5018831;28;20045;-83
2023/01/07 05:12:47;;;;;;;12.07;8.40;;;9.90;99.90;;;;;;5036404;28;20501;-81
2023/01/07 05:15:13;;;;;;;11.45;8.07;;;9.90;99.90;;;;;;5036435;28;20087;-78
2023/01/07 05:17:39;;;;;;;11.85;7.65;;;9.90;99.90;;;;;;5036666;28;20397;-80
2023/01/07 05:20:07;;;;;;;11.75;8.02;;;9.90;99.90;;;;;;5036212;28;20041;-80
2023/01/07 05:22:32;;;;;;;15.27;8.50;;;9.90;99.90;;;;;;5018021;28;20057;-79
2023/01/07 05:24:58;;;;;;;15.43;8.25;;;9.90;99.90;;;;;;5036083;28;20041;-81
2023/01/07 05:27:23;;;;;;;11.60;7.78;;;9.80;99.90;;;;;;5035922;28;20064;-79
2023/01/07 05:29:49;;;;;;;13.65;8.38;;;9.80;99.90;;;;;;5002454;28;20095;-81
2023/01/07 05:32:15;;;;;;;13.27;7.30;;;9.80;99.90;;;;;;5035967;28;20124;-82
2023/01/07 05:34:40;;;;;;;10.52;7.63;;;9.80;99.90;;;;;;5018874;28;20049;-80
2023/01/07 05:37:06;;;;;;;11.02;6.88;;;10.50;99.90;;;;;;5036674;28;20382;-79
2023/01/07 05:39:31;;;;;;;12.15;7.57;;;9.80;99.90;;;;;;5036665;28;20052;-80
2023/01/07 05:41:57;;;;;;;11.18;7.18;;;9.80;99.90;;;;;;5036038;28;20041;-81
2023/01/07 05:44:23;;;;;;;9.57;7.00;;;9.80;99.90;;;;;;5018733;28;20052;-78
2023/01/07 05:46:49;;;;;;;10.55;7.45;;;9.90;99.90;;;;;;5035901;28;20038;-81
2023/01/07 05:49:14;;;;;;;11.88;7.55;;;10.20;99.90;;;;;;5035516;28;20050;-84
2023/01/07 05:51:40;;;;;;;11.48;7.03;;;9.70;99.90;;;;;;5018155;28;20053;-80
2023/01/07 05:54:06;;;;;;;7.60;6.47;;;9.90;99.90;;;;;;5040665;28;20045;-82
2023/01/07 05:56:31;;;;;;;10.60;6.97;;;10.30;99.90;;;;;;5035614;28;20077;-83
2023/01/07 05:58:57;;;;;;;9.27;7.15;;;9.70;99.90;;;;;;5035549;28;20056;-83
2023/01/07 06:01:23;;;;;;;10.75;7.43;;;9.70;99.90;;;;;;5035410;28;20485;-82
2023/01/07 06:03:48;;;;;;;10.60;6.97;;;9.70;99.90;;;;;;5018152;28;20052;-82
2023/01/07 06:06:14;;;;;;;10.40;6.97;;;9.90;99.90;;;;;;5001488;28;20053;-81
2023/01/07 06:08:39;;;;;;;9.80;7.65;;;9.70;99.90;;;;;;5035744;28;20088;-83
2023/01/07 06:11:06;;;;;;;11.45;6.93;;;9.70;99.90;;;;;;5035813;28;20482;-83
2023/01/07 06:13:32;;;;;;;9.55;6.63;;;9.90;99.90;;;;;;5035949;28;20055;-85
2023/01/07 06:16:06;;;;;;;9.18;6.95;;;9.70;99.90;;;;;;5001873;28;20053;-83
2023/01/07 06:18:32;;;;;;;8.55;6.50;;;9.70;99.90;;;;;;5017788;28;20486;-84
2023/01/07 06:20:57;;;;;;;10.23;7.40;;;9.70;99.90;;;;;;5001275;28;20045;-81
2023/01/07 06:23:23;;;;;;;7.15;5.68;;;9.80;99.90;;;;;;5035091;28;20052;-83
2023/01/07 06:25:49;;;;;;;8.52;6.50;;;10.00;99.90;;;;;;5035510;28;20072;-81
2023/01/07 06:28:15;;;;;;;9.20;6.72;;;9.60;99.90;;;;;;5017227;28;20496;-83
2023/01/07 06:30:43;;;;;;;13.45;6.60;;;9.60;99.90;;;;;;5000806;28;20128;-83
2023/01/07 06:33:08;;;;;;;7.63;6.28;;;9.70;99.90;;;;;;5016203;28;20054;-85
2023/01/07 06:35:34;;;;;;;11.65;7.05;;;9.60;99.90;;;;;;5000778;28;20128;-84
2023/01/07 06:38:00;;;;;;;8.40;6.38;;;9.70;99.90;;;;;;5018008;28;20049;-83
2023/01/07 06:40:25;;;;;;;8.25;6.03;;;9.80;99.90;;;;;;5034643;28;20049;-84
2023/01/07 06:42:51;;;;;;;9.20;6.05;;;10.40;99.90;;;;;;5017215;28;20045;-81
2023/01/07 06:45:17;;;;;;;7.13;5.55;;;9.70;99.90;;;;;;5034668;28;20053;-82
2023/01/07 06:47:44;;;;;;;6.78;5.60;;;9.70;99.90;;;;;;5016828;28;20042;-84
2023/01/07 06:50:10;;;;;;;;;;;9.70;99.90;;;;;;5035067;28;20077;-83
2023/01/07 06:52:35;;;;;;;9.75;6.53;;;9.50;99.90;;;;;;5016892;28;20082;-82
2023/01/07 06:55:01;;;;;;;11.32;6.80;;;9.70;99.90;;;;;;5019208;28;20049;-82
2023/01/07 06:57:27;;;;;;;11.27;6.90;;;9.60;99.90;;;;;;5037694;28;20053;-80
2023/01/07 06:59:52;;;;;;;11.85;6.15;;;9.70;99.90;;;;;;5034799;28;20045;-81
2023/01/07 07:02:24;;;;;;;10.50;7.22;;;9.60;99.90;;;;;;5016677;28;20482;-81
2023/01/07 07:04:50;;;;;;;13.73;7.25;;;9.60;99.90;;;;;;5018847;28;20401;-82
2023/01/07 07:07:17;;;;;;;11.77;7.17;;;9.90;99.90;;;;;;5050639;28;20024;-81
2023/01/07 07:09:43;;;;;;;10.23;7.30;;;9.60;99.90;;;;;;5032013;28;20044;-81
2023/01/07 07:12:09;;;;;;;13.10;7.73;;;9.60;99.90;;;;;;5020515;28;20041;-81
2023/01/07 07:14:35;;;;;;;11.82;7.13;;;9.60;99.90;;;;;;5002192;28;20288;-86
2023/01/07 07:17:01;;;;;;;15.40;6.90;;;9.60;99.90;;;;;;5040545;28;20104;-84
2023/01/07 07:19:26;;;;;;;8.90;6.97;;;9.60;99.90;;;;;;5018840;28;20513;-84
2023/01/07 07:21:52;;;;;;;8.40;6.00;;;9.60;99.90;;;;;;5000391;28;20048;-82
2023/01/07 07:24:17;;;;;;;8.82;6.22;;;9.60;99.90;;;;;;5016806;28;20045;-83
2023/01/07 07:26:43;;;;;;;9.60;6.18;;;9.60;99.90;;;;;;5015916;28;20148;-82
2023/01/07 07:29:09;;;;;;;7.82;5.97;;;9.50;99.90;;;;;;5016591;28;20049;-84
2023/01/07 07:31:36;;;;;;;8.25;5.50;;;9.50;99.90;;;;;;5033878;28;20033;-81
2023/01/07 07:34:03;;;;;;;8.02;6.35;;;9.50;99.90;;;;;;5033984;28;20478;-79
2023/01/07 07:36:29;;;;;;;;;;;9.50;99.90;;;;;;5017199;28;20057;-83
2023/01/07 07:38:54;;;;;;;8.32;5.65;;;9.40;99.90;;;;;;5016928;28;19928;-82
2023/01/07 07:41:20;;;;;;;7.57;5.68;;;9.40;99.90;;;;;;5034296;28;20045;-80
2023/01/07 07:43:46;;;;;;;7.03;5.30;;;9.40;99.90;;;;;;5034467;28;20041;-82
2023/01/07 07:46:11;;;;;;;7.40;5.10;;;9.40;99.90;;;;;;5029666;28;20044;-81
2023/01/07 07:48:37;;;;;;;6.60;4.95;;;9.40;99.90;;;;;;5015012;28;20132;-79
2023/01/07 07:51:02;;;;;;;6.05;4.72;;;9.40;99.90;;;;;;5015686;28;20453;-83
2023/01/07 07:53:28;;;;;;;8.63;5.38;;;9.40;99.90;;;;;;5015873;28;20042;-82
2023/01/07 07:55:54;;;;;;;6.82;4.95;;;9.40;99.90;;;;;;4999873;28;20053;-83
2023/01/07 07:58:20;;;;;;;7.07;4.97;;;9.40;99.90;;;;;;5033745;28;20052;-82
2023/01/07 08:00:45;;;;;;;8.10;5.40;;;9.40;99.90;;;;;;4999683;28;20434;-82
2023/01/07 08:03:11;;;;;;;8.88;5.22;;;9.40;99.90;;;;;;5033416;28;20197;-80
2023/01/07 08:05:42;;;;;;;7.18;5.13;;;9.40;99.90;;;;;;5033396;28;20474;-84
2023/01/07 08:08:10;;;;;;;6.28;4.72;;;9.40;99.90;;;;;;5033302;28;20132;-79
2023/01/07 08:10:36;;;;;;;5.38;4.70;;;9.40;99.90;;;;;;5015840;28;20417;-79
2023/01/07 08:13:02;;;;;;;5.47;4.33;;;9.30;99.90;;;;;;5034101;28;20053;-82
2023/01/07 08:15:28;;;;;;;7.03;4.87;;;9.30;99.90;;;;;;5029664;28;20056;-81
2023/01/07 08:18:04;;;;;;;6.57;4.35;;;9.30;99.90;;;;;;5033396;28;20041;-79
2023/01/07 08:20:31;;;;;;;5.20;4.43;;;9.30;99.90;;;;;;5033863;28;20482;-78
2023/01/07 08:23:01;;;;;;;6.00;4.30;;;9.30;99.90;;;;;;5033356;28;20042;-80
2023/01/07 08:25:28;;;;;;;8.55;4.68;;;9.30;99.90;;;;;;5033298;28;20071;-84
2023/01/07 08:27:54;;;;;;;;;;;9.30;99.90;;;;;;5016266;28;20041;-77
2023/01/07 08:30:20;;;;;;;7.93;4.57;;;9.50;99.90;;;;;;5033410;28;19927;-82
2023/01/07 08:32:46;;;;;;;6.57;4.07;;;9.50;99.90;;;;;;5015826;28;20489;-80
2023/01/07 08:35:11;;;;;;;4.85;3.80;;;9.30;99.90;;;;;;5033530;28;20044;-80
2023/01/07 08:37:37;;;;;;;7.32;4.20;;;9.30;99.90;;;;;;5033493;28;20053;-78
2023/01/07 08:40:04;;;;;;;5.50;3.78;;;9.90;99.90;;;;;;4999253;28;20045;-83
2023/01/07 08:42:30;;;;;;;6.07;3.80;;;9.30;99.90;;;;;;5033141;28;20397;-83
2023/01/07 08:44:55;;;;;;;4.47;3.47;;;9.40;99.90;;;;;;5033141;28;20084;-78
2023/01/07 08:47:21;;;;;;;9.05;4.40;;;9.40;99.90;;;;;;5033100;28;20045;-80
2023/01/07 08:49:47;;;;;;;5.35;3.95;;;9.40;99.90;;;;;;5033472;28;20085;-81
2023/01/07 08:52:12;;;;;;;6.07;4.10;;;9.40;99.90;;;;;;5033068;28;20390;-81
2023/01/07 08:54:38;;;;;;;5.85;3.72;;;9.20;99.90;;;;;;5033123;28;20085;-79
2023/01/07 08:57:04;;;;;;;5.70;3.53;;;10.10;99.90;;;;;;5034817;28;20556;-85
2023/01/07 08:59:30;;;;;;;5.18;3.90;;;9.40;99.90;;;;;;5039520;28;20050;-81
2023/01/07 09:01:56;;;;;;;4.70;3.60;;;9.50;99.90;;;;;;5036491;28;20128;-82
2023/01/07 09:04:21;;;;;;;6.05;3.90;;;9.50;99.90;;;;;;5018854;28;20080;-82
2023/01/07 09:06:47;;;;;;;5.45;3.65;;;9.60;99.90;;;;;;5018892;28;20045;-82
2023/01/07 09:09:15;;;;;;;6.78;3.45;;;9.60;99.90;;;;;;5036474;28;20049;-79
2023/01/07 09:11:41;;;;;;;4.20;3.78;;;9.60;99.90;;;;;;5036586;28;20045;-80
2023/01/07 09:14:06;;;;;;;4.00;3.13;;;9.60;99.90;;;;;;5018821;28;20057;-79
2023/01/07 09:16:32;;;;;;;5.47;3.30;;;9.60;99.90;;;;;;5035974;28;20041;-82
2023/01/07 09:18:58;;;;;;;6.30;3.45;;;9.70;99.90;;;;;;5018814;28;20087;-79
2023/01/07 09:21:23;;;;;;;5.55;3.20;;;9.50;99.90;;;;;;5036193;28;20046;-79
2023/01/07 09:23:49;;;;;;;3.88;2.70;;;9.60;99.90;;;;;;5036572;28;20049;-80
2023/01/07 09:26:15;;;;;;;4.75;2.97;;;9.60;99.90;;;;;;5035677;28;20056;-82
2023/01/07 09:28:40;;;;;;;4.28;2.92;;;9.60;99.90;;;;;;5036079;28;20125;-84
2023/01/07 09:31:06;;;;;;;4.30;3.25;;;9.60;99.90;;;;;;5018203;28;20440;-81
2023/01/07 09:33:33;;;;;;;4.07;2.90;;;10.20;99.90;;;;;;4985759;28;20049;-80
2023/01/07 09:35:58;;;;;;;5.07;3.03;;;9.70;99.90;;;;;;5035798;28;20041;-80
2023/01/07 09:38:24;;;;;;;5.13;2.42;;;9.80;99.90;;;;;;5018107;28;20049;-80
2023/01/07 09:40:50;;;;;;;4.55;2.58;;;9.80;99.90;;;;;;5018481;28;20053;-79
2023/01/07 09:43:29;;;;;;;2.57;2.23;;;9.90;99.90;;;;;;5035830;28;20042;-83
2023/01/07 09:45:59;;;;;;;5.78;2.63;;;10.00;99.90;;;;;;5018335;28;20628;-82
2023/01/07 09:48:32;;;;;;;2.47;1.98;;;10.00;99.90;;;;;;5035649;28;20124;-83
2023/01/07 09:51:05;;;;;;;3.75;2.50;;;10.10;99.90;;;;;;5035476;28;20517;-84
2023/01/07 09:53:45;;;;;;;4.32;2.13;;;10.10;99.90;;;;;;5018476;28;20394;-80
2023/01/07 09:56:25;;;;;;;3.60;2.20;;;10.30;99.90;;;;;;5017639;28;20513;-81
2023/01/07 09:58:52;;;;;;;2.53;1.83;;;10.30;99.90;;;;;;5035615;28;20477;-80
2023/01/07 10:01:58;;;;;;;3.10;2.10;;;10.40;99.90;;;;;;5017990;28;20041;-81
2023/01/07 10:04:39;;;;;;;3.28;1.90;;;10.40;99.90;;;;;;5018196;28;20099;-79
2023/01/07 10:07:16;;;;;;;3.13;2.00;;;10.50;99.90;;;;;;5017901;28;20052;-84
2023/01/07 10:09:59;;;;;;;;;;;10.50;99.90;;;;;;5036097;28;20045;-80
2023/01/07 10:12:25;;;;;;;4.13;2.40;;;10.60;99.90;;;;;;5018088;28;20313;-80
2023/01/07 10:15:04;;;;;;;6.47;2.22;;;10.60;99.90;;;;;;5035235;28;20045;-84
2023/01/07 10:17:38;;;;;;;3.88;2.30;;;10.60;99.90;;;;;;5035165;28;20482;-81
2023/01/07 10:20:23;;;;;;;3.42;2.05;;;10.90;99.90;;;;;;5035105;28;20397;-80
2023/01/07 10:22:58;;;;;;;2.63;1.92;;;10.70;99.90;;;;;;5035401;28;20537;-80
2023/01/07 10:25:32;;;;;;;3.17;1.90;;;10.70;99.90;;;;;;5001276;28;20060;-80
2023/01/07 10:28:04;;;;;;;3.05;2.20;;;10.70;99.90;;;;;;5017505;28;20135;-80
2023/01/07 10:30:37;;;;;;;3.28;2.00;;;10.70;99.90;;;;;;5017762;28;20175;-80
2023/01/07 10:33:23;;;;;;;2.70;1.90;;;10.70;99.90;;;;;;5017380;28;20085;-81
2023/01/07 10:35:59;;;;;;;3.85;2.30;;;10.80;99.90;;;;;;5017041;28;20556;-86
2023/01/07 10:38:30;;;;;;;3.38;2.10;;;10.80;99.90;;;;;;5017026;28;20049;-83
2023/01/07 10:41:02;;;;;;;2.05;1.55;;;10.70;99.90;;;;;;5000991;28;20045;-87
2023/01/07 10:43:59;;;;;;;3.15;1.80;;;10.70;99.90;;;;;;5017189;28;20046;-86
2023/01/07 10:46:57;;;;;;;3.20;1.90;;;10.70;99.90;;;;;;5033257;28;20045;-83
2023/01/07 10:49:45;;;;;;;2.85;1.92;;;10.70;99.90;;;;;;5000851;28;20075;-86
2023/01/07 10:52:35;;;;;;;4.67;2.03;;;10.70;99.90;;;;;;5017377;28;20176;-87
2023/01/07 10:55:29;;;;;;;2.55;2.00;;;10.60;99.90;;;;;;5034437;28;20280;-87
2023/01/07 10:57:54;;;;;;;3.85;2.05;;;10.70;99.90;;;;;;5016981;28;20044;-79
2023/01/07 11:00:22;;;;;;;3.58;1.88;;;10.80;99.90;;;;;;5017319;28;20049;-80
2023/01/07 11:02:56;;;;;;;2.50;2.00;;;10.70;99.90;;;;;;5034314;28;20045;-80
2023/01/07 11:05:27;;;;;;;4.30;2.22;;;10.80;99.90;;;;;;5017447;28;20053;-80
2023/01/07 11:07:58;;;;;;;3.15;1.90;;;11.00;99.90;;;;;;5016817;28;20042;-80
2023/01/07 11:10:34;;;;;;;3.25;2.10;;;10.80;99.90;;;;;;5016628;28;20128;-80
2023/01/07 11:13:14;;;;;;;3.35;1.90;;;10.80;99.90;;;;;;5034142;28;20045;-80
2023/01/07 11:15:54;;;;;;;3.38;2.10;;;10.80;99.90;;;;;;5034042;28;20045;-80
2023/01/07 11:18:28;;;;;;;3.05;1.92;;;10.80;99.90;;;;;;5016739;28;20044;-81
2023/01/07 11:20:56;;;;;;;3.67;2.03;;;10.80;99.90;;;;;;5016685;28;20115;-82
2023/01/07 11:23:25;;;;;;;3.70;1.90;;;11.10;99.90;;;;;;5034017;28;20091;-79
2023/01/07 11:25:51;;;;;;;2.33;1.80;;;10.80;99.90;;;;;;5033985;28;20049;-83
2023/01/07 11:28:19;;;;;;;4.57;1.90;;;11.50;99.90;;;;;;5009502;28;20520;-80
2023/01/07 11:30:58;;;;;;;2.20;1.80;;;10.80;99.90;;;;;;5031097;28;20041;-87
2023/01/07 11:33:33;;;;;;;6.50;2.15;;;10.80;99.90;;;;;;4999366;28;20425;-79
2023/01/07 11:35:59;;;;;;;3.67;2.05;;;10.80;99.90;;;;;;4998926;28;20057;-80
2023/01/07 11:38:29;;;;;;;4.70;1.90;;;10.80;99.90;;;;;;5034220;28;20048;-87
2023/01/07 11:40:59;;;;;;;3.65;1.83;;;11.30;99.90;;;;;;5017421;28;20042;-85
2023/01/07 11:43:31;;;;;;;3.80;1.83;;;10.80;99.90;;;;;;5016586;28;20051;-87
2023/01/07 11:46:13;;;;;;;2.72;2.08;;;10.80;99.90;;;;;;5016745;28;20085;-92
2023/01/07 11:48:48;;;;;;;2.63;1.75;;;10.80;99.90;;;;;;5000187;28;20393;-85
2023/01/07 11:51:15;;;;;;;3.42;1.67;;;10.80;99.90;;;;;;5000102;28;20056;-93
2023/01/07 11:53:49;;;;;;;2.92;1.90;;;10.80;99.90;;;;;;5000516;28;20477;-84
2023/01/07 11:56:31;;;;;;;2.53;1.77;;;10.80;99.90;;;;;;5017401;28;20049;-90
2023/01/07 11:59:24;;;;;;;4.05;1.95;;;10.90;99.90;;;;;;5016389;28;20049;-85
2023/01/07 12:01:58;;;;;;;3.17;1.70;;;11.00;99.90;;;;;;5016143;28;20128;-87
2023/01/07 12:04:28;;;;;;;2.88;1.60;;;11.00;99.90;;;;;;5001198;28;20068;-83
2023/01/07 12:07:05;;;;;;;3.85;1.70;;;11.00;99.90;;;;;;5019581;28;20033;-92
2023/01/07 12:09:31;;;;;;;3.85;1.60;;;11.00;99.90;;;;;;4996722;28;20394;-84
2023/01/07 12:12:30;;;;;;;2.45;1.80;;;11.00;99.90;;;;;;5027848;28;20076;-88
2023/01/07 12:14:58;;;;;;;3.97;1.75;;;11.10;99.90;;;;;;4998683;28;20485;-86
2023/01/07 12:17:26;;;;;;;2.63;1.70;;;11.10;99.90;;;;;;5015635;28;20524;-83
2023/01/07 12:20:06;;;;;;;2.95;1.65;;;12.00;99.90;;;;;;5015800;28;20111;-82
2023/01/07 12:22:59;;;;;;;3.92;1.70;;;11.10;99.90;;;;;;5032951;28;20042;-82
2023/01/07 12:25:46;;;;;;;2.80;1.50;;;11.10;99.90;;;;;;5014950;28;20052;-86
2023/01/07 12:28:16;;;;;;;2.42;1.67;;;11.40;99.90;;;;;;4997368;28;20037;-86
2023/01/07 12:30:41;;;;;;;3.13;1.83;;;11.20;99.90;;;;;;5014882;28;20051;-83
2023/01/07 12:33:16;;;;;;;3.20;1.63;;;11.20;99.90;;;;;;5019522;28;20132;-84
2023/01/07 12:35:44;;;;;;;3.80;2.28;;;11.30;99.90;;;;;;5019191;28;20053;-80
2023/01/07 12:38:18;;;;;;;2.40;1.75;;;11.30;99.90;;;;;;4987201;28;20064;-83
2023/01/07 12:40:53;;;;;;;3.25;1.80;;;11.30;99.90;;;;;;5036989;28;20052;-77
2023/01/07 12:43:39;;;;;;;3.38;1.70;;;11.30;99.90;;;;;;5036930;28;20410;-83
2023/01/07 12:46:09;;;;;;;2.47;1.70;;;11.30;99.90;;;;;;5036753;28;20490;-83
2023/01/07 12:48:43;;;;;;;2.70;1.60;;;11.50;99.90;;;;;;5002610;28;20128;-84
2023/01/07 12:51:23;;;;;;;2.65;1.65;;;11.20;99.90;;;;;;5019225;28;20081;-82
2023/01/07 12:54:00;;;;;;;2.75;1.60;;;11.20;99.90;;;;;;5003049;28;20091;-82
2023/01/07 12:56:42;;;;;;;2.75;1.90;;;11.20;99.90;;;;;;5019408;28;20462;-83
2023/01/07 12:59:16;;;;;;;5.10;2.10;;;11.20;99.90;;;;;;4994999;28;20050;-84
2023/01/07 13:01:56;;;;;;;2.35;1.50;;;11.90;99.90;;;;;;5017242;28;20498;-83
2023/01/07 13:04:38;;;;;;;3.38;1.85;;;11.10;99.90;;;;;;5036369;28;20042;-84